createdAt,value
2022-09-28T00:02:26.605Z,5.40
2022-09-28T00:04:53.131Z,5.53
2022-09-28T00:07:19.478Z,5.10
2022-09-28T00:09:45.831Z,5.90
2022-09-28T00:12:12.243Z,5.50
2022-09-28T00:14:40.582Z,5.50
2022-09-28T00:17:08.299Z,5.13
2022-09-28T00:19:34.752Z,5.20
2022-09-28T00:22:01.087Z,5.10
2022-09-28T00:24:28.018Z,5.63
2022-09-28T00:26:55.487Z,5.23
2022-09-28T00:29:23.146Z,5.27
2022-09-28T00:31:52.384Z,5.53
2022-09-28T00:34:18.926Z,5.13
2022-09-28T00:36:45.972Z,4.67
2022-09-28T00:39:13.906Z,5.23
2022-09-28T00:41:40.289Z,4.73
2022-09-28T00:44:25.252Z,4.80
2022-09-28T00:46:57.737Z,5.03
2022-09-28T00:49:44.572Z,4.27
2022-09-28T00:52:13.218Z,5.23
2022-09-28T00:54:40.080Z,5.50
2022-09-28T00:57:06.513Z,4.50
2022-09-28T00:59:33.366Z,4.83
2022-09-28T01:02:00.357Z,5.07
2022-09-28T01:04:29.857Z,4.87
2022-09-28T01:06:57.183Z,5.27
2022-09-28T01:09:25.047Z,5.23
2022-09-28T01:11:53.048Z,4.93
2022-09-28T01:14:20.725Z,4.63
2022-09-28T01:16:51.014Z,4.90
2022-09-28T01:19:35.876Z,5.20
2022-09-28T01:22:26.353Z,4.97
2022-09-28T01:25:04.810Z,4.63
2022-09-28T01:27:31.133Z,4.63
2022-09-28T01:30:03.747Z,5.40
2022-09-28T01:32:38.336Z,5.30
2022-09-28T01:35:10.040Z,4.77
2022-09-28T01:37:42.365Z,5.40
2022-09-28T01:40:10.103Z,5.03
2022-09-28T01:42:38.120Z,5.03
2022-09-28T01:45:07.017Z,4.67
2022-09-28T01:47:36.008Z,4.47
2022-09-28T01:50:08.405Z,5.07
2022-09-28T01:52:41.653Z,5.07
2022-09-28T01:55:20.051Z,4.67
2022-09-28T01:57:52.979Z,4.93
2022-09-28T02:00:20.638Z,5.10
2022-09-28T02:02:48.362Z,4.67
2022-09-28T02:05:15.107Z,5.27
2022-09-28T02:07:51.429Z,6.03
2022-09-28T02:10:20.197Z,5.40
2022-09-28T02:12:48.714Z,5.27
2022-09-28T02:15:17.843Z,5.20
2022-09-28T02:17:44.614Z,4.57
2022-09-28T02:20:14.081Z,5.70
2022-09-28T02:22:50.738Z,5.30
2022-09-28T02:25:39.770Z,5.33
2022-09-28T02:28:07.387Z,5.17
2022-09-28T02:30:36.412Z,5.40
2022-09-28T02:33:07.442Z,5.60
2022-09-28T02:35:35.386Z,5.53
2022-09-28T02:38:01.823Z,5.60
2022-09-28T02:40:35.020Z,5.53
2022-09-28T02:43:04.743Z,5.83
2022-09-28T02:45:36.314Z,5.37
2022-09-28T02:48:35.933Z,5.60
2022-09-28T02:51:13.677Z,5.97
2022-09-28T02:53:43.115Z,5.53
2022-09-28T02:56:12.550Z,6.20
2022-09-28T02:58:52.117Z,6.80
2022-09-28T03:01:23.457Z,6.07
2022-09-28T03:03:55.969Z,6.13
2022-09-28T03:06:43.859Z,6.60
2022-09-28T03:09:16.504Z,5.20
2022-09-28T03:11:45.966Z,7.33
2022-09-28T03:14:12.570Z,6.90
2022-09-28T03:16:42.780Z,6.23
2022-09-28T03:19:09.122Z,6.07
2022-09-28T03:21:35.429Z,6.27
2022-09-28T03:24:01.835Z,5.83
2022-09-28T03:26:28.193Z,5.60
2022-09-28T03:28:54.530Z,5.40
2022-09-28T03:31:20.938Z,4.97
2022-09-28T03:33:47.300Z,5.47
2022-09-28T03:36:15.145Z,5.80
2022-09-28T03:38:41.495Z,16.50
2022-09-28T03:41:08.015Z,21.53
2022-09-28T03:43:34.355Z,10.90
2022-09-28T03:46:01.584Z,8.03
2022-09-28T03:48:32.410Z,7.53
2022-09-28T03:51:01.293Z,8.73
2022-09-28T03:53:29.733Z,11.67
2022-09-28T03:55:56.530Z,11.40
2022-09-28T03:58:23.037Z,11.77
2022-09-28T04:00:49.924Z,15.17
2022-09-28T04:03:16.347Z,22.53
2022-09-28T04:05:50.048Z,15.47
2022-09-28T04:08:16.484Z,13.63
2022-09-28T04:10:42.882Z,14.90
2022-09-28T04:13:09.426Z,14.13
2022-09-28T04:15:37.977Z,16.10
2022-09-28T04:18:11.199Z,15.10
2022-09-28T04:20:37.533Z,15.47
2022-09-28T04:23:03.869Z,16.03
2022-09-28T04:25:30.233Z,16.10
2022-09-28T04:28:15.355Z,17.40
2022-09-28T04:30:41.786Z,16.37
2022-09-28T04:33:08.144Z,17.80
2022-09-28T04:35:34.850Z,16.60
2022-09-28T04:38:01.183Z,17.47
2022-09-28T04:40:27.547Z,17.50
2022-09-28T04:42:55.340Z,17.83
2022-09-28T04:45:22.127Z,17.07
2022-09-28T04:47:48.766Z,17.37
2022-09-28T04:50:15.235Z,16.50
2022-09-28T04:52:41.549Z,15.50
2022-09-28T04:55:09.414Z,17.43
2022-09-28T04:57:35.790Z,16.97
2022-09-28T05:00:02.298Z,18.40
2022-09-28T05:02:29.604Z,17.93
2022-09-28T05:04:56.566Z,16.87
2022-09-28T05:07:22.885Z,16.80
2022-09-28T05:09:49.193Z,18.47
2022-09-28T05:12:15.696Z,17.67
2022-09-28T05:14:42.081Z,17.50
2022-09-28T05:17:09.610Z,16.57
2022-09-28T05:19:35.983Z,15.37
2022-09-28T05:22:07.282Z,16.57
2022-09-28T05:24:33.771Z,17.27
2022-09-28T05:27:00.178Z,17.57
2022-09-28T05:29:31.347Z,15.93
2022-09-28T05:31:58.584Z,17.03
2022-09-28T05:34:24.998Z,16.90
2022-09-28T05:36:51.375Z,15.83
2022-09-28T05:39:17.886Z,15.17
2022-09-28T05:41:44.375Z,17.37
2022-09-28T05:44:10.760Z,16.93
2022-09-28T05:46:37.149Z,17.80
2022-09-28T05:49:03.581Z,17.57
2022-09-28T05:51:29.911Z,17.07
2022-09-28T05:53:58.134Z,17.50
2022-09-28T05:56:27.163Z,17.07
2022-09-28T05:58:53.646Z,17.57
2022-09-28T06:01:20.128Z,16.97
2022-09-28T06:03:46.529Z,17.17
2022-09-28T06:06:12.877Z,18.27
2022-09-28T06:08:42.946Z,18.00
2022-09-28T06:11:12.826Z,17.63
2022-09-28T06:13:40.051Z,17.63
2022-09-28T06:16:08.035Z,17.00
2022-09-28T06:18:34.727Z,17.13
2022-09-28T06:21:01.932Z,17.47
2022-09-28T06:23:28.332Z,19.03
2022-09-28T06:25:54.688Z,16.17
2022-09-28T06:28:21.024Z,16.97
2022-09-28T06:30:48.251Z,16.47
2022-09-28T06:33:15.069Z,15.63
2022-09-28T06:35:42.278Z,17.77
2022-09-28T06:38:08.750Z,16.97
2022-09-28T06:40:35.731Z,18.23
2022-09-28T06:43:03.349Z,17.90
2022-09-28T06:45:30.218Z,17.40
2022-09-28T06:47:58.414Z,17.33
2022-09-28T06:50:25.567Z,18.10
2022-09-28T06:52:52.848Z,16.63
2022-09-28T06:55:19.748Z,17.00
2022-09-28T06:57:46.069Z,17.10
2022-09-28T07:00:12.952Z,14.97
2022-09-28T07:02:39.348Z,15.93
2022-09-28T07:05:08.142Z,15.53
2022-09-28T07:07:34.605Z,14.03
2022-09-28T07:10:00.955Z,16.07
2022-09-28T07:12:27.527Z,16.93
2022-09-28T07:14:57.335Z,17.27
2022-09-28T07:17:23.977Z,18.37
2022-09-28T07:19:52.667Z,20.67
2022-09-28T07:22:26.187Z,18.73
2022-09-28T07:24:57.707Z,19.20
2022-09-28T07:27:28.723Z,19.57
2022-09-28T07:29:55.386Z,18.43
2022-09-28T07:32:21.960Z,19.10
2022-09-28T07:34:48.826Z,19.33
2022-09-28T07:37:15.513Z,19.93
2022-09-28T07:40:00.403Z,18.37
2022-09-28T07:42:30.126Z,17.73
2022-09-28T07:44:57.195Z,15.60
2022-09-28T07:47:30.909Z,17.40
2022-09-28T07:50:00.374Z,18.27
2022-09-28T07:52:28.613Z,18.07
2022-09-28T07:54:55.555Z,19.30
2022-09-28T07:57:22.793Z,19.20
2022-09-28T07:59:55.638Z,18.40
2022-09-28T08:02:22.229Z,19.53
2022-09-28T08:04:49.136Z,20.20
2022-09-28T08:07:17.796Z,20.03
2022-09-28T08:09:48.022Z,19.93
2022-09-28T08:12:14.422Z,21.13
2022-09-28T08:14:41.456Z,22.17
2022-09-28T08:17:07.983Z,22.67
2022-09-28T08:19:53.151Z,20.83
2022-09-28T08:22:19.974Z,20.70
2022-09-28T08:24:47.006Z,22.73
2022-09-28T08:27:13.945Z,20.67
2022-09-28T08:29:41.169Z,22.93
2022-09-28T08:32:08.341Z,22.73
2022-09-28T08:34:35.543Z,22.80
2022-09-28T08:37:01.918Z,23.03
2022-09-28T08:39:28.365Z,22.90
2022-09-28T08:42:15.692Z,23.73
2022-09-28T08:44:46.454Z,23.23
2022-09-28T08:47:35.772Z,23.80
2022-09-28T08:50:02.485Z,21.77
2022-09-28T08:52:33.358Z,21.87
2022-09-28T08:55:05.281Z,20.13
2022-09-28T08:57:38.004Z,18.93
2022-09-28T09:00:09.605Z,19.47
2022-09-28T09:02:39.718Z,17.87
2022-09-28T09:05:07.540Z,21.17
2022-09-28T09:07:33.943Z,17.50
2022-09-28T09:10:00.285Z,18.33
2022-09-28T09:12:26.603Z,16.23
2022-09-28T09:15:11.274Z,17.30
2022-09-28T09:17:40.988Z,16.03
2022-09-28T09:20:45.775Z,16.43
2022-09-28T09:23:17.438Z,15.90
2022-09-28T09:25:46.403Z,16.33
2022-09-28T09:28:39.582Z,15.53
2022-09-28T09:31:22.467Z,16.47
2022-09-28T09:33:57.749Z,16.20
2022-09-28T09:36:24.129Z,15.90
2022-09-28T09:39:01.962Z,18.60
2022-09-28T09:41:54.994Z,16.63
2022-09-28T09:44:38.763Z,16.47
2022-09-28T09:47:08.112Z,15.87
2022-09-28T09:49:50.594Z,15.13
2022-09-28T09:55:21.236Z,16.57
2022-09-28T09:57:57.948Z,15.90
2022-09-28T10:00:24.389Z,16.30
2022-09-28T10:02:50.907Z,15.97
2022-09-28T10:05:29.234Z,18.10
2022-09-28T10:07:58.859Z,14.77
2022-09-28T10:10:27.487Z,13.83
2022-09-28T10:12:54.356Z,13.23
2022-09-28T10:15:25.325Z,14.00
2022-09-28T10:17:52.829Z,14.30
2022-09-28T10:20:19.918Z,14.10
2022-09-28T10:22:46.384Z,14.50
2022-09-28T10:25:13.293Z,13.47
2022-09-28T10:27:41.187Z,14.60
2022-09-28T10:30:08.230Z,13.07
2022-09-28T10:32:38.834Z,13.50
2022-09-28T10:35:12.938Z,14.00
2022-09-28T10:37:48.486Z,12.50
2022-09-28T10:40:30.508Z,12.40
2022-09-28T10:43:23.543Z,11.57
2022-09-28T10:45:59.928Z,12.33
2022-09-28T10:48:26.998Z,12.20
2022-09-28T10:51:00.673Z,12.60
2022-09-28T10:53:27.246Z,18.63
2022-09-28T10:56:16.958Z,14.87
2022-09-28T10:58:44.187Z,12.03
2022-09-28T11:01:12.168Z,12.40
2022-09-28T11:03:48.382Z,12.17
2022-09-28T11:06:14.799Z,11.13
2022-09-28T11:08:45.772Z,10.00
2022-09-28T11:11:13.685Z,19.13
2022-09-28T11:13:50.867Z,16.73
2022-09-28T11:16:33.906Z,10.13
2022-09-28T11:19:23.738Z,10.47
2022-09-28T11:21:51.091Z,9.90
2022-09-28T11:24:22.072Z,10.23
2022-09-28T11:26:53.101Z,9.77
2022-09-28T11:29:24.564Z,9.37
2022-09-28T11:31:51.561Z,9.57
2022-09-28T11:34:31.069Z,10.00
2022-09-28T11:37:02.670Z,10.83
2022-09-28T11:39:32.303Z,9.57
2022-09-28T11:42:14.222Z,8.77
2022-09-28T11:44:45.113Z,6.50
2022-09-28T11:47:30.130Z,7.40
2022-09-28T11:50:00.387Z,7.10
2022-09-28T11:52:32.573Z,6.50
2022-09-28T11:55:25.441Z,6.37
2022-09-28T11:58:09.084Z,5.23
2022-09-28T12:00:38.296Z,4.40
2022-09-28T12:03:09.292Z,4.60
2022-09-28T12:05:41.206Z,4.50
2022-09-28T12:08:16.942Z,4.00
2022-09-28T12:11:12.592Z,3.57
2022-09-28T12:13:40.504Z,4.03
2022-09-28T12:16:53.150Z,3.70
2022-09-28T12:21:32.369Z,3.47
2022-09-28T12:24:04.911Z,3.60
2022-09-28T12:26:43.966Z,2.90
2022-09-28T12:29:15.512Z,2.90
2022-09-28T12:31:58.401Z,3.30
2022-09-28T12:34:24.757Z,3.30
2022-09-28T12:37:05.496Z,2.57
2022-09-28T12:39:56.567Z,2.60
2022-09-28T12:42:33.318Z,2.30
2022-09-28T12:45:18.879Z,5.33
2022-09-28T12:48:04.034Z,2.30
2022-09-28T12:50:42.840Z,2.20
2022-09-28T12:53:15.009Z,2.30
2022-09-28T12:55:51.066Z,1.80
2022-09-28T12:58:36.768Z,1.83
2022-09-28T13:01:12.101Z,1.77
2022-09-28T13:03:45.878Z,6.03
2022-09-28T13:06:12.274Z,2.17
2022-09-28T13:08:41.801Z,1.90
2022-09-28T13:11:21.689Z,1.47
2022-09-28T13:13:54.561Z,1.47
2022-09-28T13:16:21.514Z,1.50
2022-09-28T13:19:03.512Z,1.77
2022-09-28T13:21:38.478Z,1.60
2022-09-28T13:24:20.889Z,2.07
2022-09-28T13:26:52.621Z,1.20
2022-09-28T13:29:19.668Z,1.47
2022-09-28T13:31:49.522Z,1.47
2022-09-28T13:34:22.577Z,1.47
2022-09-28T13:37:07.570Z,1.70
2022-09-28T13:39:35.623Z,1.73
2022-09-28T13:42:02.679Z,1.40
2022-09-28T13:44:29.084Z,1.60
2022-09-28T13:47:01.565Z,1.60
2022-09-28T13:49:39.544Z,1.50
2022-09-28T13:52:24.759Z,1.27
2022-09-28T13:55:00.140Z,1.40
2022-09-28T13:57:29.555Z,1.43
2022-09-28T14:00:11.630Z,1.83
2022-09-28T14:02:41.120Z,1.57
2022-09-28T14:05:22.712Z,1.20
2022-09-28T14:07:57.263Z,1.13
2022-09-28T14:10:43.773Z,1.00
2022-09-28T14:13:10.441Z,0.90
2022-09-28T14:15:37.214Z,0.87
2022-09-28T14:18:15.998Z,2.10
2022-09-28T14:20:50.466Z,1.00
2022-09-28T14:23:21.294Z,1.20
2022-09-28T14:26:10.728Z,1.00
2022-09-28T14:28:37.048Z,7.57
2022-09-28T14:31:14.378Z,1.20
2022-09-28T14:33:43.004Z,0.60
2022-09-28T14:36:43.594Z,0.73
2022-09-28T14:39:37.861Z,1.23
2022-09-28T14:42:12.730Z,0.63
2022-09-28T14:44:59.816Z,1.10
2022-09-28T14:48:02.093Z,1.10
2022-09-28T14:50:29.414Z,1.00
2022-09-28T14:52:57.233Z,1.20
2022-09-28T14:55:28.970Z,0.70
2022-09-28T14:57:57.159Z,0.90
2022-09-28T15:00:26.196Z,0.70
2022-09-28T15:02:53.990Z,0.60
2022-09-28T15:05:24.230Z,0.80
2022-09-28T15:07:52.189Z,1.20
2022-09-28T15:10:39.249Z,1.10
2022-09-28T15:13:25.971Z,1.00
2022-09-28T15:16:05.608Z,1.10
2022-09-28T15:18:35.021Z,1.20
2022-09-28T15:21:01.868Z,0.90
2022-09-28T15:23:34.514Z,0.80
2022-09-28T15:26:01.318Z,0.97
2022-09-28T15:28:27.850Z,1.60
2022-09-28T15:31:04.389Z,1.07
2022-09-28T15:33:50.419Z,1.17
2022-09-28T15:36:19.484Z,1.10
2022-09-28T15:38:55.754Z,1.60
2022-09-28T15:41:24.905Z,1.20
2022-09-28T15:44:07.185Z,0.93
2022-09-28T15:46:35.104Z,1.77
2022-09-28T15:49:03.208Z,1.40
2022-09-28T15:51:29.716Z,1.70
2022-09-28T15:54:11.974Z,6.70
2022-09-28T15:56:54.939Z,1.90
2022-09-28T15:59:30.881Z,1.27
2022-09-28T16:02:15.366Z,1.60
2022-09-28T16:04:54.169Z,1.50
2022-09-28T16:07:20.546Z,1.73
2022-09-28T16:09:59.773Z,1.17
2022-09-28T16:12:48.719Z,1.63
2022-09-28T16:15:20.147Z,1.53
2022-09-28T16:17:51.721Z,1.57
2022-09-28T16:20:23.250Z,1.60
2022-09-28T16:22:49.806Z,1.63
2022-09-28T16:25:24.118Z,2.00
2022-09-28T16:27:51.535Z,1.70
2022-09-28T16:30:21.691Z,1.90
2022-09-28T16:32:51.097Z,2.27
2022-09-28T16:35:25.738Z,2.20
2022-09-28T16:38:03.435Z,2.07
2022-09-28T16:40:30.780Z,2.33
2022-09-28T16:43:02.919Z,2.10
2022-09-28T16:45:29.278Z,2.10
2022-09-28T16:47:56.483Z,2.83
2022-09-28T16:50:23.253Z,3.23
2022-09-28T16:53:08.752Z,10.27
2022-09-28T16:55:40.390Z,5.83
2022-09-28T16:58:07.452Z,3.17
2022-09-28T17:00:33.870Z,3.10
2022-09-28T17:03:00.302Z,3.80
2022-09-28T17:05:26.725Z,2.80
2022-09-28T17:08:03.068Z,3.17
2022-09-28T17:10:45.112Z,3.13
2022-09-28T17:13:20.865Z,3.33
2022-09-28T17:15:50.272Z,3.10
2022-09-28T17:18:18.103Z,4.60
2022-09-28T17:20:48.659Z,3.83
2022-09-28T17:23:15.739Z,3.90
2022-09-28T17:25:42.799Z,4.10
2022-09-28T17:28:17.439Z,3.63
2022-09-28T17:30:43.817Z,3.77
2022-09-28T17:33:10.208Z,3.87
2022-09-28T17:35:39.641Z,3.80
2022-09-28T17:38:06.356Z,4.30
2022-09-28T17:40:32.847Z,4.27
2022-09-28T17:42:59.286Z,4.40
2022-09-28T17:45:28.199Z,3.77
2022-09-28T17:47:55.440Z,4.50
2022-09-28T17:50:21.823Z,8.63
2022-09-28T17:52:52.119Z,6.47
2022-09-28T17:55:22.910Z,7.30
2022-09-28T17:57:49.553Z,6.50
2022-09-28T18:00:17.176Z,6.40
2022-09-28T18:02:44.456Z,6.27
2022-09-28T18:05:11.911Z,6.80
2022-09-28T18:07:38.390Z,6.60
2022-09-28T18:10:06.227Z,7.00
2022-09-28T18:12:32.866Z,7.67
2022-09-28T18:14:59.299Z,8.77
2022-09-28T18:17:25.696Z,8.63
2022-09-28T18:19:52.084Z,9.37
2022-09-28T18:22:18.464Z,12.23
2022-09-28T18:24:44.801Z,10.30
2022-09-28T18:27:11.158Z,9.40
2022-09-28T18:29:37.486Z,9.23
2022-09-28T18:32:03.833Z,9.07
2022-09-28T18:34:30.252Z,9.10
2022-09-28T18:36:56.687Z,10.27
2022-09-28T18:39:23.916Z,9.20
2022-09-28T18:41:50.244Z,9.67
2022-09-28T18:44:16.618Z,10.47
2022-09-28T18:46:43.475Z,11.13
2022-09-28T18:49:09.962Z,10.80
2022-09-28T18:51:36.352Z,10.77
2022-09-28T18:54:07.104Z,11.17
2022-09-28T18:56:34.603Z,11.33
2022-09-28T18:59:01.673Z,12.07
2022-09-28T19:01:30.800Z,11.00
2022-09-28T19:04:01.430Z,12.37
2022-09-28T19:06:28.286Z,13.03
2022-09-28T19:08:58.194Z,12.10
2022-09-28T19:11:24.899Z,11.77
2022-09-28T19:13:52.624Z,12.80
2022-09-28T19:16:20.904Z,13.07
2022-09-28T19:18:47.476Z,13.23
2022-09-28T19:21:15.301Z,15.60
2022-09-28T19:23:45.808Z,14.73
2022-09-28T19:26:20.409Z,13.37
2022-09-28T19:28:47.163Z,13.33
2022-09-28T19:31:13.578Z,13.90
2022-09-28T19:33:40.241Z,14.33
2022-09-28T19:36:06.770Z,13.97
2022-09-28T19:38:34.026Z,12.67
2022-09-28T19:41:00.756Z,12.90
2022-09-28T19:43:27.223Z,13.20
2022-09-28T19:45:55.852Z,14.53
2022-09-28T19:48:26.545Z,14.43
2022-09-28T19:50:56.813Z,13.77
2022-09-28T19:53:23.844Z,12.90
2022-09-28T19:55:50.915Z,13.53
2022-09-28T19:58:17.229Z,13.40
2022-09-28T20:00:43.567Z,12.67
2022-09-28T20:03:09.889Z,12.73
2022-09-28T20:05:38.839Z,13.10
2022-09-28T20:08:05.224Z,15.57
2022-09-28T20:10:31.547Z,14.17
2022-09-28T20:12:59.005Z,16.00
2022-09-28T20:15:25.665Z,15.47
2022-09-28T20:17:52.054Z,14.67
2022-09-28T20:20:18.418Z,14.33
2022-09-28T20:22:44.799Z,14.33
2022-09-28T20:25:11.142Z,13.87
2022-09-28T20:27:39.279Z,13.90
2022-09-28T20:30:06.452Z,15.07
2022-09-28T20:32:33.385Z,14.17
2022-09-28T20:34:59.732Z,15.87
2022-09-28T20:37:26.444Z,15.90
2022-09-28T20:39:53.327Z,16.03
2022-09-28T20:42:20.170Z,16.07
2022-09-28T20:44:46.591Z,14.10
2022-09-28T20:47:12.934Z,15.13
2022-09-28T20:49:39.326Z,15.07
2022-09-28T20:52:05.696Z,14.40
2022-09-28T20:54:32.066Z,14.83
2022-09-28T20:56:58.469Z,14.63
2022-09-28T20:59:26.499Z,15.23
2022-09-28T21:01:52.926Z,15.10
2022-09-28T21:04:19.793Z,15.30
2022-09-28T21:06:46.264Z,15.00
2022-09-28T21:09:12.686Z,15.10
2022-09-28T21:11:40.326Z,14.03
2022-09-28T21:14:10.205Z,14.37
2022-09-28T21:16:36.766Z,16.07
2022-09-28T21:19:03.540Z,14.57
2022-09-28T21:21:30.032Z,14.47
2022-09-28T21:23:57.226Z,14.87
2022-09-28T21:26:25.068Z,15.50
2022-09-28T21:28:55.569Z,14.60
2022-09-28T21:31:28.260Z,15.13
2022-09-28T21:33:55.667Z,15.43
2022-09-28T21:36:22.010Z,14.13
2022-09-28T21:38:48.340Z,15.13
2022-09-28T21:41:14.862Z,14.67
2022-09-28T21:43:41.236Z,15.53
2022-09-28T21:46:07.658Z,13.93
2022-09-28T21:48:34.159Z,14.43
2022-09-28T21:51:01.882Z,14.20
2022-09-28T21:53:29.500Z,14.63
2022-09-28T21:55:56.403Z,16.03
2022-09-28T21:58:23.811Z,16.00
2022-09-28T22:00:58.354Z,14.97
2022-09-28T22:03:25.768Z,15.67
2022-09-28T22:05:52.458Z,15.13
2022-09-28T22:08:19.493Z,15.20
2022-09-28T22:10:45.901Z,15.93
2022-09-28T22:13:12.350Z,15.20
2022-09-28T22:15:38.892Z,16.97
2022-09-28T22:18:05.331Z,15.83
2022-09-28T22:20:31.691Z,14.70
2022-09-28T22:22:58.027Z,14.17
2022-09-28T22:25:24.439Z,14.87
2022-09-28T22:27:50.844Z,14.70
2022-09-28T22:30:17.187Z,13.83
2022-09-28T22:32:43.526Z,14.03
2022-09-28T22:35:09.848Z,14.73
2022-09-28T22:37:36.161Z,13.77
2022-09-28T22:40:02.567Z,14.40
2022-09-28T22:42:29.437Z,14.20
2022-09-28T22:44:55.793Z,14.40
2022-09-28T22:47:22.183Z,14.23
2022-09-28T22:49:48.552Z,12.67
2022-09-28T22:52:14.905Z,13.63
2022-09-28T22:54:41.230Z,13.03
2022-09-28T22:57:07.546Z,13.67
2022-09-28T22:59:33.854Z,13.20
2022-09-28T23:02:00.288Z,13.93
2022-09-28T23:04:26.690Z,13.20
2022-09-28T23:06:53.019Z,14.03
2022-09-28T23:09:19.463Z,13.73
2022-09-28T23:11:45.912Z,12.67
2022-09-28T23:14:12.672Z,12.53
2022-09-28T23:16:39.022Z,13.50
2022-09-28T23:19:05.385Z,11.97
2022-09-28T23:21:31.707Z,11.60
2022-09-28T23:24:00.830Z,13.53
2022-09-28T23:26:28.595Z,12.83
2022-09-28T23:28:55.424Z,14.03
2022-09-28T23:31:26.296Z,13.47
2022-09-28T23:33:56.402Z,11.93
2022-09-28T23:36:22.787Z,12.80
2022-09-28T23:38:49.151Z,13.57
2022-09-28T23:41:15.518Z,12.60
2022-09-28T23:43:41.946Z,13.37
2022-09-28T23:46:08.423Z,13.17
2022-09-28T23:48:34.855Z,12.77
2022-09-28T23:51:01.511Z,12.50
2022-09-28T23:53:28.299Z,13.13
2022-09-28T23:55:54.909Z,12.90
2022-09-28T23:58:21.267Z,13.00
